Last 24 Hours

Thomas Mountain

10 Minute Data | America/Los_Angeles
as of 9/5/26 6:38 PM PDT
Date & Time Temp (°F) Dew Pt (°F) RH (%) Wind Spd (mph) Wind Dir (°) Wind Gust (mph) Wind Gst Dir (°) Daily Max Temp (°F) Daily Min Temp (°F)
9/5/26 - 1830 72.0 52.0 49 7.9 W | 266 14.1 W | 272 76.5 60.1
9/5/26 - 1820 72.1 52.0 49 11.2 WSW | 252 18.0 WSW | 252 76.5 60.1
9/5/26 - 1810 72.4 52.0 49 12.9 WSW | 253 22.2 WSW | 254 76.5 60.1
9/5/26 - 1800 72.9 51.9 48 12.1 WSW | 252 19.9 WSW | 243 76.5 60.1
9/5/26 - 1750 73.4 52.3 48 11.6 W | 264 19.6 W | 264 76.5 60.1
9/5/26 - 1740 73.8 52.3 47 11.0 W | 265 20.3 WNW | 290 76.5 60.1
9/5/26 - 1730 73.8 51.9 46 10.9 W | 260 19.1 W | 268 76.5 60.1
9/5/26 - 1720 74.2 51.5 45 9.8 WSW | 257 18.6 W | 264 76.5 60.1
9/5/26 - 1710 74.2 51.4 45 13.0 WSW | 251 21.9 SW | 227 76.5 60.1
9/5/26 - 1700 75.1 51.0 43 12.6 WSW | 249 19.5 WSW | 242 76.5 60.1
9/5/26 - 1650 74.9 50.8 43 10.5 WSW | 254 21.6 W | 273 76.5 60.1
9/5/26 - 1640 75.3 50.6 42 13.2 WSW | 240 21.8 SW | 233 76.5 60.1
9/5/26 - 1630 75.1 50.4 42 14.9 WSW | 244 25.8 WSW | 248 76.5 60.1
9/5/26 - 1620 74.6 50.5 43 13.8 WSW | 245 22.1 WSW | 250 76.5 60.1
9/5/26 - 1610 73.7 50.5 44 12.6 WSW | 249 18.6 WSW | 244 76.5 60.1
9/5/26 - 1600 73.4 50.7 45 15.2 WSW | 246 21.8 WSW | 238 76.5 60.1
9/5/26 - 1550 73.4 51.2 46 15.0 WSW | 242 22.1 WSW | 243 76.5 60.1
9/5/26 - 1540 73.8 50.7 44 14.1 WSW | 241 23.9 WSW | 242 76.5 60.1
9/5/26 - 1530 74.6 50.6 43 13.9 WSW | 239 20.9 SW | 235 76.5 60.1
9/5/26 - 1520 74.1 50.6 44 12.5 WSW | 242 22.0 WSW | 242 76.5 60.1
9/5/26 - 1510 73.9 50.0 43 14.8 WSW | 238 22.9 WSW | 247 76.5 60.1
9/5/26 - 1500 74.0 49.8 43 12.2 WSW | 241 22.7 WSW | 244 76.5 60.1
9/5/26 - 1450 73.8 49.9 43 11.5 WSW | 248 19.8 WSW | 253 76.5 60.1
9/5/26 - 1440 74.0 49.5 42 14.0 WSW | 246 23.7 WSW | 244 76.5 60.1
9/5/26 - 1430 74.2 49.8 42 13.6 WSW | 241 19.9 WSW | 246 76.5 60.1
9/5/26 - 1420 73.6 48.6 41 13.4 WSW | 244 20.2 WSW | 239 76.5 60.1
9/5/26 - 1410 74.2 48.6 40 14.2 WSW | 239 22.4 WSW | 239 76.5 60.1
9/5/26 - 1400 74.6 48.6 40 14.3 WSW | 239 22.6 WSW | 249 76.5 60.1
9/5/26 - 1350 74.1 49.1 41 13.5 SW | 234 19.7 WSW | 240 76.5 60.1
9/5/26 - 1340 74.1 49.1 41 14.9 WSW | 240 20.2 WSW | 248 76.5 60.1
9/5/26 - 1330 74.8 49.3 41 14.6 WSW | 240 24.3 WSW | 240 76.5 60.1
9/5/26 - 1320 74.6 49.5 41 14.9 SW | 235 24.3 WSW | 245 76.5 60.1
9/5/26 - 1310 74.5 49.0 41 15.7 WSW | 244 24.4 WSW | 244 76.5 60.1
9/5/26 - 1300 75.3 45.9 35 15.3 WSW | 244 24.2 WSW | 239 76.5 60.1
9/5/26 - 1250 75.4 44.5 33 15.1 WSW | 242 23.2 WSW | 244 76.5 60.1
9/5/26 - 1240 75.5 42.7 31 12.2 WSW | 240 22.4 WSW | 240 76.5 60.1
9/5/26 - 1230 74.0 41.4 31 13.1 WSW | 243 20.2 WSW | 244 75.5 60.1
9/5/26 - 1220 74.1 40.8 30 13.2 WSW | 248 19.0 WSW | 248 75.5 60.1
9/5/26 - 1210 74.5 42.0 31 15.0 WSW | 246 20.2 SW | 230 75.5 60.1
9/5/26 - 1200 73.9 41.9 32 16.4 WSW | 244 22.9 WSW | 242 75.5 60.1
9/5/26 - 1150 74.8 42.4 31 13.1 WSW | 245 22.4 WSW | 248 75.5 60.1
9/5/26 - 1140 74.7 41.5 30 13.6 WSW | 241 22.0 WSW | 248 75.1 60.1
9/5/26 - 1130 73.7 41.3 31 10.5 WSW | 246 20.1 SSW | 210 74.6 60.1
9/5/26 - 1120 73.2 41.4 32 11.2 WSW | 247 17.2 WSW | 240 74.2 60.1
9/5/26 - 1110 72.1 41.9 34 10.9 WSW | 247 17.4 WSW | 245 73.1 60.1
9/5/26 - 1100 72.4 40.4 31 10.5 WSW | 237 17.6 W | 261 73.1 60.1
9/5/26 - 1050 71.9 39.6 31 12.7 WSW | 244 20.0 WSW | 258 72.8 60.1
9/5/26 - 1040 71.7 37.0 28 11.5 WSW | 246 17.2 WSW | 252 72.8 60.1
9/5/26 - 1030 71.5 35.2 26 9.7 WSW | 244 15.9 WSW | 243 72.8 60.1
9/5/26 - 1020 72.0 33.1 24 8.2 SW | 226 13.5 SW | 214 72.8 60.1
9/5/26 - 1010 71.5 31.1 22 9.4 SW | 236 15.0 SSW | 209 72.3 60.1
9/5/26 - 1000 70.5 33.2 25 11.0 WSW | 246 17.2 WSW | 242 72.2 60.1
9/5/26 - 0950 71.2 27.3 20 8.2 WSW | 245 14.1 W | 278 72.2 60.1
9/5/26 - 0940 70.1 20.7 15 10.2 WSW | 244 16.9 SW | 231 71.4 60.1
9/5/26 - 0930 69.8 16.1 13 7.7 WSW | 243 12.8 SW | 227 71.1 60.1
9/5/26 - 0920 69.5 14.3 12 8.8 WSW | 238 12.6 WSW | 247 70.2 60.1
9/5/26 - 0910 69.2 15.0 12 7.3 SW | 233 13.0 SW | 222 69.9 60.1
9/5/26 - 0900 68.8 14.0 12 8.2 SW | 230 12.3 SW | 217 69.1 60.1
9/5/26 - 0850 68.6 16.0 13 6.8 WSW | 238 11.0 SW | 231 69.1 60.1
9/5/26 - 0840 68.2 13.4 12 7.6 WSW | 246 12.2 WSW | 248 68.3 60.1
9/5/26 - 0830 68.0 14.0 12 6.1 WSW | 248 9.2 WSW | 258 68.2 60.1
9/5/26 - 0820 67.7 13.3 12 6.7 WSW | 247 9.1 SW | 235 68.0 60.1
9/5/26 - 0810 67.6 12.8 12 5.4 WSW | 239 8.1 WSW | 242 67.8 60.1
9/5/26 - 0800 67.3 11.4 11 4.6 WSW | 242 6.9 WSW | 252 67.4 60.1
9/5/26 - 0750 67.1 12.1 12 2.6 WSW | 244 4.2 WSW | 258 67.3 60.1
9/5/26 - 0740 66.4 12.4 12 2.0 WSW | 258 4.6 WNW | 286 66.8 60.1
9/5/26 - 0730 65.7 14.4 14 2.7 WNW | 283 4.7 WNW | 284 66.0 60.1
9/5/26 - 0720 65.3 14.2 14 3.0 W | 271 5.3 W | 272 65.6 60.1
9/5/26 - 0710 64.5 17.6 16 3.1 WNW | 283 4.6 WNW | 302 64.7 60.1
9/5/26 - 0700 64.2 21.3 19 3.5 WNW | 298 5.3 WNW | 300 64.4 60.1
9/5/26 - 0650 64.2 22.6 20 3.1 NW | 311 5.1 WNW | 294 64.4 60.1
9/5/26 - 0640 63.9 24.1 22 3.0 NW | 307 4.2 NW | 314 64.1 60.1
9/5/26 - 0630 63.3 25.8 24 3.8 NW | 308 5.2 NW | 310 63.6 60.1
9/5/26 - 0620 63.1 28.6 27 2.4 WNW | 293 3.3 WNW | 300 63.2 60.1
9/5/26 - 0610 62.9 28.8 27 1.8 WNW | 283 2.3 WNW | 287 63.0 60.1
9/5/26 - 0600 62.8 28.8 28 1.6 W | 269 2.1 W | 273 63.0 60.1
9/5/26 - 0550 62.9 28.7 27 1.9 W | 272 2.7 W | 264 63.0 60.1
9/5/26 - 0540 62.9 28.6 27 2.4 W | 274 3.1 W | 265 63.0 60.1
9/5/26 - 0530 62.4 30.2 30 1.7 NW | 315 2.8 WNW | 286 62.8 60.1
9/5/26 - 0520 61.8 29.5 29 1.3 N | 2 2.3 N | 0 62.8 60.1
9/5/26 - 0510 61.1 28.7 29 0.1 N | 1 1.3 N | 0 62.8 60.1
9/5/26 - 0500 61.4 29.2 29 0.4 SW | 235 1.4 SW | 226 62.8 60.1
9/5/26 - 0450 61.7 29.4 29 2.1 SW | 222 3.1 SW | 214 62.8 60.1
9/5/26 - 0440 61.7 29.6 30 2.5 SSW | 201 3.3 SSW | 207 62.8 60.1
9/5/26 - 0430 61.9 32.0 32 2.3 S | 184 3.4 S | 186 62.8 60.1
9/5/26 - 0420 62.4 35.1 36 2.4 SW | 216 3.1 SSW | 204 62.8 60.1
9/5/26 - 0410 62.4 33.8 34 0.8 WSW | 245 1.2 SW | 236 62.8 60.1
9/5/26 - 0400 62.7 31.3 30 1.7 SW | 224 2.2 SW | 225 62.8 60.1
9/5/26 - 0350 62.0 32.1 32 0.4 WSW | 249 1.8 SW | 232 62.5 60.1
9/5/26 - 0340 62.0 35.8 38 0.0 N | 0 0.0 W | 278 62.4 60.1
9/5/26 - 0330 62.3 36.0 37 0.2 W | 267 1.0 W | 263 62.4 60.1
9/5/26 - 0320 62.0 35.8 38 0.4 W | 262 1.8 WSW | 244 62.4 60.1
9/5/26 - 0310 62.0 36.1 38 0.0 N | 0 0.0 SW | 217 62.4 60.1
9/5/26 - 0300 62.3 35.4 36 0.6 SSW | 208 1.8 SSW | 199 62.4 60.1
9/5/26 - 0250 62.1 36.8 39 1.9 SSW | 199 2.0 SSW | 200 62.1 60.1
9/5/26 - 0240 60.9 34.6 37 1.9 S | 176 2.7 S | 178 62.1 60.1
9/5/26 - 0230 60.3 33.7 37 1.4 SSE | 168 2.6 SSE | 168 62.1 60.1
9/5/26 - 0220 61.3 36.5 39 0.2 S | 170 0.9 S | 169 62.1 60.7
9/5/26 - 0210 61.9 34.7 36 0.4 SSW | 201 2.3 SSW | 201 62.1 61.2
9/5/26 - 0200 62.1 34.2 35 2.7 SSW | 205 3.4 SSW | 203 62.1 61.2
9/5/26 - 0150 61.8 34.6 36 1.8 SW | 225 2.8 SW | 220 61.9 61.2
9/5/26 - 0140 61.8 34.6 36 2.1 WSW | 247 3.3 SW | 232 61.9 61.2
9/5/26 - 0130 61.8 34.4 36 3.0 WSW | 246 3.8 WSW | 252 61.9 61.2
9/5/26 - 0120 61.5 34.4 36 3.8 W | 277 5.1 WNW | 287 61.8 61.2
9/5/26 - 0110 61.4 36.0 39 4.7 WNW | 282 5.6 WNW | 286 61.4 61.2
9/5/26 - 0100 61.1 38.3 43 5.0 WNW | 288 5.6 WNW | 282 75.8 55.6
9/5/26 - 0050 61.0 38.7 44 4.6 W | 264 5.6 W | 262 75.8 55.6
9/5/26 - 0040 61.4 38.0 42 5.2 WSW | 250 6.6 WSW | 253 75.8 55.6
9/5/26 - 0030 62.0 37.5 40 5.0 WSW | 237 5.9 SW | 224 75.8 55.6
9/5/26 - 0020 62.2 37.6 40 3.1 W | 264 5.0 SW | 236 75.8 55.6
9/5/26 - 0010 62.2 36.9 39 3.4 W | 281 4.9 W | 280 75.8 55.6
9/5/26 - 0000 62.0 36.9 39 3.2 WSW | 250 3.9 WSW | 250 75.8 55.6
9/4/26 - 2350 61.5 37.4 41 2.7 WSW | 242 3.7 WSW | 254 75.8 55.6
9/4/26 - 2340 61.9 37.2 40 3.1 SW | 225 4.2 SW | 225 75.8 55.6
9/4/26 - 2330 63.0 36.7 38 4.2 WSW | 251 5.4 W | 266 75.8 55.6
9/4/26 - 2320 63.3 36.8 37 4.3 WSW | 257 6.4 WSW | 258 75.8 55.6
9/4/26 - 2310 63.2 37.2 38 2.8 W | 259 3.8 W | 262 75.8 55.6
9/4/26 - 2300 63.4 37.3 38 2.5 WSW | 257 3.9 WSW | 246 75.8 55.6
9/4/26 - 2250 63.5 37.4 38 3.1 WSW | 252 3.9 WSW | 250 75.8 55.6
9/4/26 - 2240 63.5 37.3 38 2.7 WSW | 252 4.2 WSW | 245 75.8 55.6
9/4/26 - 2230 63.5 37.3 38 2.2 WSW | 245 4.1 WSW | 240 75.8 55.6
9/4/26 - 2220 63.5 37.4 38 2.6 WSW | 251 4.4 WSW | 253 75.8 55.6
9/4/26 - 2210 63.2 37.4 38 2.7 W | 266 4.5 W | 264 75.8 55.6
9/4/26 - 2200 63.1 37.4 38 2.0 W | 268 3.4 W | 264 75.8 55.6
9/4/26 - 2150 62.8 37.4 39 2.2 W | 270 3.7 W | 271 75.8 55.6
9/4/26 - 2140 62.9 37.4 39 3.0 W | 262 4.2 WSW | 237 75.8 55.6
9/4/26 - 2130 62.9 35.8 36 2.8 WSW | 249 3.7 WSW | 244 75.8 55.6
9/4/26 - 2120 63.8 34.7 34 3.6 SW | 234 4.6 SW | 235 75.8 55.6
9/4/26 - 2110 64.3 34.5 33 2.8 WSW | 250 4.3 W | 262 75.8 55.6
9/4/26 - 2100 64.3 34.5 33 2.5 WNW | 282 4.5 W | 280 75.8 55.6
9/4/26 - 2050 64.5 34.8 33 2.9 NW | 306 4.7 WNW | 297 75.8 55.6
9/4/26 - 2040 63.8 35.6 35 2.7 NNW | 333 4.1 NNW | 348 75.8 55.6
9/4/26 - 2030 63.7 37.5 38 1.0 NW | 311 3.0 WNW | 292 75.8 55.6
9/4/26 - 2020 63.3 39.7 42 3.5 WSW | 252 5.0 WSW | 254 75.8 55.6
9/4/26 - 2010 62.7 41.4 45 3.0 SW | 229 3.6 SW | 218 75.8 55.6
9/4/26 - 2000 62.7 41.6 46 3.5 SW | 217 4.9 SSW | 211 75.8 55.6
9/4/26 - 1950 62.8 41.2 45 3.4 WSW | 244 4.6 WSW | 250 75.8 55.6
9/4/26 - 1940 63.4 41.4 45 4.7 SW | 224 6.3 SW | 219 75.8 55.6
9/4/26 - 1930 63.8 41.9 45 5.3 SSW | 213 7.2 SSW | 210 75.8 55.6
9/4/26 - 1920 65.5 41.3 41 5.8 SW | 226 7.6 SW | 236 75.8 55.6
9/4/26 - 1910 66.5 41.9 41 6.8 WSW | 242 10.7 WSW | 237 75.8 55.6
9/4/26 - 1900 67.2 42.5 41 8.6 WSW | 242 12.7 WSW | 241 75.8 55.6
9/4/26 - 1850 67.8 43.4 41 8.4 WSW | 243 11.5 WSW | 241 75.8 55.6
9/4/26 - 1840 68.2 43.6 41 8.6 WSW | 246 12.9 WSW | 256 75.8 55.6
9/4/26 - 1830 68.4 43.8 41 8.0 WSW | 253 14.8 SW | 228 75.8 55.6
Max 75.5 52.3 49 16.4 - 25.8 - 76.5 61.2
Avg 67.4 37.0 34 6.8 - 10.7 - - -
Min 60.3 11.4 11 0.0 - 0.0 - 61.4 55.6